sensor_id;sensor_type;location;lat;lon;timestamp;P1;durP1;ratioP1;P2;durP2;ratioP2
12288;SDS011;6207;49.308;7.336;2022-11-15T00:01:06;9.50;;;8.67;;
12288;SDS011;6207;49.308;7.336;2022-11-15T00:03:34;10.23;;;9.33;;
12288;SDS011;6207;49.308;7.336;2022-11-15T00:06:02;10.07;;;9.03;;
12288;SDS011;6207;49.308;7.336;2022-11-15T00:08:30;9.53;;;8.80;;
12288;SDS011;6207;49.308;7.336;2022-11-15T00:10:58;9.80;;;9.07;;
12288;SDS011;6207;49.308;7.336;2022-11-15T00:13:26;10.17;;;9.40;;
12288;SDS011;6207;49.308;7.336;2022-11-15T00:15:58;9.73;;;8.83;;
12288;SDS011;6207;49.308;7.336;2022-11-15T00:18:36;9.87;;;8.97;;
12288;SDS011;6207;49.308;7.336;2022-11-15T00:21:05;9.53;;;8.83;;
12288;SDS011;6207;49.308;7.336;2022-11-15T00:23:38;10.00;;;9.10;;
12288;SDS011;6207;49.308;7.336;2022-11-15T00:26:05;9.20;;;8.50;;
12288;SDS011;6207;49.308;7.336;2022-11-15T00:28:32;9.37;;;8.77;;
12288;SDS011;6207;49.308;7.336;2022-11-15T00:31:00;10.10;;;9.30;;
12288;SDS011;6207;49.308;7.336;2022-11-15T00:33:28;9.47;;;8.77;;
12288;SDS011;6207;49.308;7.336;2022-11-15T00:36:06;9.37;;;8.67;;
12288;SDS011;6207;49.308;7.336;2022-11-15T00:38:36;9.27;;;8.57;;
12288;SDS011;6207;49.308;7.336;2022-11-15T00:41:04;9.60;;;8.73;;
12288;SDS011;6207;49.308;7.336;2022-11-15T00:43:35;9.87;;;8.97;;
12288;SDS011;6207;49.308;7.336;2022-11-15T00:46:02;9.93;;;9.10;;
12288;SDS011;6207;49.308;7.336;2022-11-15T00:48:36;9.53;;;8.73;;
12288;SDS011;6207;49.308;7.336;2022-11-15T00:51:03;8.57;;;8.07;;
12288;SDS011;6207;49.308;7.336;2022-11-15T00:53:30;9.20;;;8.50;;
12288;SDS011;6207;49.308;7.336;2022-11-15T00:55:57;8.90;;;8.30;;
12288;SDS011;6207;49.308;7.336;2022-11-15T00:58:24;9.07;;;8.40;;
12288;SDS011;6207;49.308;7.336;2022-11-15T01:00:51;9.27;;;8.53;;
12288;SDS011;6207;49.308;7.336;2022-11-15T01:03:18;10.13;;;9.33;;
12288;SDS011;6207;49.308;7.336;2022-11-15T01:05:45;9.10;;;8.50;;
12288;SDS011;6207;49.308;7.336;2022-11-15T01:08:15;8.73;;;8.23;;
12288;SDS011;6207;49.308;7.336;2022-11-15T01:10:42;9.33;;;8.63;;
12288;SDS011;6207;49.308;7.336;2022-11-15T01:13:09;9.10;;;8.40;;
12288;SDS011;6207;49.308;7.336;2022-11-15T01:15:38;8.73;;;8.13;;
12288;SDS011;6207;49.308;7.336;2022-11-15T01:18:07;9.17;;;8.50;;
12288;SDS011;6207;49.308;7.336;2022-11-15T01:20:34;9.30;;;8.70;;
12288;SDS011;6207;49.308;7.336;2022-11-15T01:23:05;9.10;;;8.50;;
12288;SDS011;6207;49.308;7.336;2022-11-15T01:25:31;9.50;;;8.77;;
12288;SDS011;6207;49.308;7.336;2022-11-15T01:27:58;9.10;;;8.30;;
12288;SDS011;6207;49.308;7.336;2022-11-15T01:30:25;9.73;;;8.73;;
12288;SDS011;6207;49.308;7.336;2022-11-15T01:32:52;9.10;;;8.40;;
12288;SDS011;6207;49.308;7.336;2022-11-15T01:35:19;9.00;;;8.30;;
12288;SDS011;6207;49.308;7.336;2022-11-15T01:37:46;9.23;;;8.53;;
12288;SDS011;6207;49.308;7.336;2022-11-15T01:40:13;9.80;;;9.10;;
12288;SDS011;6207;49.308;7.336;2022-11-15T01:42:40;9.47;;;8.87;;
12288;SDS011;6207;49.308;7.336;2022-11-15T01:45:11;9.37;;;8.67;;
12288;SDS011;6207;49.308;7.336;2022-11-15T01:47:42;9.13;;;8.43;;
12288;SDS011;6207;49.308;7.336;2022-11-15T01:50:14;9.60;;;8.70;;
12288;SDS011;6207;49.308;7.336;2022-11-15T01:52:43;9.57;;;8.70;;
12288;SDS011;6207;49.308;7.336;2022-11-15T01:55:12;9.20;;;8.60;;
12288;SDS011;6207;49.308;7.336;2022-11-15T01:57:46;9.87;;;9.17;;
12288;SDS011;6207;49.308;7.336;2022-11-15T02:00:16;9.83;;;9.13;;
12288;SDS011;6207;49.308;7.336;2022-11-15T02:02:43;9.37;;;8.67;;
12288;SDS011;6207;49.308;7.336;2022-11-15T02:05:10;9.27;;;8.67;;
12288;SDS011;6207;49.308;7.336;2022-11-15T02:07:37;9.43;;;8.63;;
12288;SDS011;6207;49.308;7.336;2022-11-15T02:10:09;9.63;;;8.93;;
12288;SDS011;6207;49.308;7.336;2022-11-15T02:12:40;8.77;;;8.13;;
12288;SDS011;6207;49.308;7.336;2022-11-15T02:15:08;9.30;;;8.70;;
12288;SDS011;6207;49.308;7.336;2022-11-15T02:34:43;10.60;;;9.50;;
12288;SDS011;6207;49.308;7.336;2022-11-15T02:40:33;10.50;;;9.40;;
12288;SDS011;6207;49.308;7.336;2022-11-15T02:43:28;9.90;;;9.20;;
12288;SDS011;6207;49.308;7.336;2022-11-15T02:49:48;9.43;;;8.73;;
12288;SDS011;6207;49.308;7.336;2022-11-15T02:52:22;10.07;;;9.27;;
12288;SDS011;6207;49.308;7.336;2022-11-15T02:54:54;9.87;;;9.17;;
12288;SDS011;6207;49.308;7.336;2022-11-15T02:57:44;10.13;;;9.43;;
12288;SDS011;6207;49.308;7.336;2022-11-15T03:00:18;10.30;;;9.60;;
12288;SDS011;6207;49.308;7.336;2022-11-15T03:05:56;10.40;;;9.70;;
12288;SDS011;6207;49.308;7.336;2022-11-15T03:11:32;10.23;;;9.50;;
12288;SDS011;6207;49.308;7.336;2022-11-15T03:16:58;10.80;;;9.90;;
12288;SDS011;6207;49.308;7.336;2022-11-15T03:19:37;9.93;;;9.23;;
12288;SDS011;6207;49.308;7.336;2022-11-15T03:22:23;10.17;;;9.27;;
12288;SDS011;6207;49.308;7.336;2022-11-15T03:24:53;10.00;;;8.93;;
12288;SDS011;6207;49.308;7.336;2022-11-15T03:27:23;9.63;;;8.80;;
12288;SDS011;6207;49.308;7.336;2022-11-15T03:29:55;9.33;;;8.63;;
12288;SDS011;6207;49.308;7.336;2022-11-15T03:32:28;9.77;;;8.97;;
12288;SDS011;6207;49.308;7.336;2022-11-15T03:34:58;9.80;;;9.10;;
12288;SDS011;6207;49.308;7.336;2022-11-15T03:43:45;9.37;;;8.60;;
12288;SDS011;6207;49.308;7.336;2022-11-15T03:48:53;9.07;;;8.47;;
12288;SDS011;6207;49.308;7.336;2022-11-15T03:51:25;9.33;;;8.73;;
12288;SDS011;6207;49.308;7.336;2022-11-15T03:53:52;9.00;;;8.30;;
12288;SDS011;6207;49.308;7.336;2022-11-15T03:56:19;10.13;;;9.17;;
12288;SDS011;6207;49.308;7.336;2022-11-15T03:58:46;9.37;;;8.70;;
12288;SDS011;6207;49.308;7.336;2022-11-15T04:01:13;9.60;;;8.93;;
12288;SDS011;6207;49.308;7.336;2022-11-15T04:03:39;9.60;;;9.00;;
12288;SDS011;6207;49.308;7.336;2022-11-15T04:06:07;9.83;;;9.13;;
12288;SDS011;6207;49.308;7.336;2022-11-15T04:08:33;9.60;;;9.00;;
12288;SDS011;6207;49.308;7.336;2022-11-15T04:11:00;9.13;;;8.50;;
12288;SDS011;6207;49.308;7.336;2022-11-15T04:13:27;10.30;;;9.50;;
12288;SDS011;6207;49.308;7.336;2022-11-15T04:15:55;9.27;;;8.67;;
12288;SDS011;6207;49.308;7.336;2022-11-15T04:18:21;8.50;;;7.90;;
12288;SDS011;6207;49.308;7.336;2022-11-15T04:20:48;8.60;;;8.10;;
12288;SDS011;6207;49.308;7.336;2022-11-15T04:23:34;8.23;;;7.73;;
12288;SDS011;6207;49.308;7.336;2022-11-15T04:26:20;9.00;;;8.30;;
12288;SDS011;6207;49.308;7.336;2022-11-15T04:28:48;9.20;;;8.60;;
12288;SDS011;6207;49.308;7.336;2022-11-15T04:31:33;9.30;;;8.70;;
12288;SDS011;6207;49.308;7.336;2022-11-15T04:34:00;9.40;;;8.80;;
12288;SDS011;6207;49.308;7.336;2022-11-15T04:36:27;8.67;;;8.03;;
12288;SDS011;6207;49.308;7.336;2022-11-15T04:39:12;8.53;;;8.03;;
12288;SDS011;6207;49.308;7.336;2022-11-15T04:41:39;8.80;;;8.20;;
12288;SDS011;6207;49.308;7.336;2022-11-15T04:44:05;8.57;;;7.97;;
12288;SDS011;6207;49.308;7.336;2022-11-15T04:46:32;8.83;;;8.23;;
12288;SDS011;6207;49.308;7.336;2022-11-15T04:48:59;8.73;;;8.17;;
12288;SDS011;6207;49.308;7.336;2022-11-15T04:51:26;9.30;;;8.70;;
12288;SDS011;6207;49.308;7.336;2022-11-15T04:53:53;9.13;;;8.43;;
12288;SDS011;6207;49.308;7.336;2022-11-15T04:56:20;9.03;;;8.43;;
12288;SDS011;6207;49.308;7.336;2022-11-15T04:58:50;8.50;;;8.00;;
12288;SDS011;6207;49.308;7.336;2022-11-15T05:01:16;9.13;;;8.53;;
12288;SDS011;6207;49.308;7.336;2022-11-15T05:03:44;8.83;;;8.20;;
12288;SDS011;6207;49.308;7.336;2022-11-15T05:06:29;9.30;;;8.60;;
12288;SDS011;6207;49.308;7.336;2022-11-15T05:08:57;9.73;;;8.97;;
12288;SDS011;6207;49.308;7.336;2022-11-15T05:11:24;10.03;;;9.33;;
12288;SDS011;6207;49.308;7.336;2022-11-15T05:13:51;10.00;;;9.27;;
12288;SDS011;6207;49.308;7.336;2022-11-15T05:16:18;9.77;;;9.17;;
12288;SDS011;6207;49.308;7.336;2022-11-15T05:18:45;10.17;;;9.47;;
12288;SDS011;6207;49.308;7.336;2022-11-15T05:21:13;10.10;;;9.30;;
12288;SDS011;6207;49.308;7.336;2022-11-15T05:23:41;9.70;;;9.10;;
12288;SDS011;6207;49.308;7.336;2022-11-15T05:26:08;9.87;;;9.20;;
12288;SDS011;6207;49.308;7.336;2022-11-15T05:28:36;9.93;;;9.23;;
12288;SDS011;6207;49.308;7.336;2022-11-15T05:31:04;10.50;;;9.80;;
12288;SDS011;6207;49.308;7.336;2022-11-15T05:33:35;10.10;;;9.30;;
12288;SDS011;6207;49.308;7.336;2022-11-15T05:36:15;10.30;;;9.60;;
12288;SDS011;6207;49.308;7.336;2022-11-15T05:38:46;10.70;;;10.00;;
12288;SDS011;6207;49.308;7.336;2022-11-15T05:41:15;10.40;;;9.60;;
12288;SDS011;6207;49.308;7.336;2022-11-15T05:43:44;10.30;;;9.40;;
12288;SDS011;6207;49.308;7.336;2022-11-15T05:46:13;10.30;;;9.60;;
12288;SDS011;6207;49.308;7.336;2022-11-15T05:48:41;10.07;;;9.27;;
12288;SDS011;6207;49.308;7.336;2022-11-15T05:51:11;9.80;;;9.10;;
12288;SDS011;6207;49.308;7.336;2022-11-15T05:53:40;9.77;;;9.03;;
12288;SDS011;6207;49.308;7.336;2022-11-15T05:56:07;9.87;;;9.17;;
12288;SDS011;6207;49.308;7.336;2022-11-15T05:58:36;9.90;;;9.20;;
12288;SDS011;6207;49.308;7.336;2022-11-15T06:01:03;9.63;;;9.03;;
12288;SDS011;6207;49.308;7.336;2022-11-15T06:03:31;10.20;;;9.50;;
12288;SDS011;6207;49.308;7.336;2022-11-15T06:05:58;10.43;;;9.67;;
12288;SDS011;6207;49.308;7.336;2022-11-15T06:08:25;10.40;;;9.67;;
12288;SDS011;6207;49.308;7.336;2022-11-15T06:10:52;10.83;;;10.03;;
12288;SDS011;6207;49.308;7.336;2022-11-15T06:13:18;10.70;;;9.87;;
12288;SDS011;6207;49.308;7.336;2022-11-15T06:15:45;10.00;;;9.20;;
12288;SDS011;6207;49.308;7.336;2022-11-15T06:18:12;10.17;;;9.43;;
12288;SDS011;6207;49.308;7.336;2022-11-15T06:20:39;10.37;;;9.37;;
12288;SDS011;6207;49.308;7.336;2022-11-15T06:23:06;10.10;;;9.40;;
12288;SDS011;6207;49.308;7.336;2022-11-15T06:25:33;10.20;;;9.50;;
12288;SDS011;6207;49.308;7.336;2022-11-15T06:28:00;10.20;;;9.53;;
12288;SDS011;6207;49.308;7.336;2022-11-15T06:30:26;10.40;;;9.60;;
12288;SDS011;6207;49.308;7.336;2022-11-15T06:33:03;10.03;;;9.33;;
12288;SDS011;6207;49.308;7.336;2022-11-15T06:35:33;10.47;;;9.77;;
12288;SDS011;6207;49.308;7.336;2022-11-15T06:38:07;10.50;;;9.73;;
12288;SDS011;6207;49.308;7.336;2022-11-15T06:40:36;10.67;;;9.80;;
12288;SDS011;6207;49.308;7.336;2022-11-15T06:43:04;10.73;;;9.83;;
12288;SDS011;6207;49.308;7.336;2022-11-15T06:45:31;11.17;;;10.37;;
12288;SDS011;6207;49.308;7.336;2022-11-15T06:47:58;10.67;;;9.97;;
12288;SDS011;6207;49.308;7.336;2022-11-15T06:50:25;10.83;;;10.03;;
12288;SDS011;6207;49.308;7.336;2022-11-15T06:52:52;10.63;;;9.83;;
12288;SDS011;6207;49.308;7.336;2022-11-15T06:55:18;11.33;;;10.43;;
12288;SDS011;6207;49.308;7.336;2022-11-15T06:57:46;10.97;;;10.17;;
12288;SDS011;6207;49.308;7.336;2022-11-15T07:00:14;11.77;;;10.77;;
12288;SDS011;6207;49.308;7.336;2022-11-15T07:02:42;10.00;;;9.30;;
12288;SDS011;6207;49.308;7.336;2022-11-15T07:05:09;11.33;;;10.20;;
12288;SDS011;6207;49.308;7.336;2022-11-15T07:07:37;10.77;;;9.97;;
12288;SDS011;6207;49.308;7.336;2022-11-15T07:10:04;11.10;;;10.20;;
12288;SDS011;6207;49.308;7.336;2022-11-15T07:12:32;11.23;;;10.40;;
12288;SDS011;6207;49.308;7.336;2022-11-15T07:14:59;11.17;;;10.17;;
12288;SDS011;6207;49.308;7.336;2022-11-15T07:17:25;11.33;;;10.47;;
12288;SDS011;6207;49.308;7.336;2022-11-15T07:19:52;10.67;;;9.87;;
12288;SDS011;6207;49.308;7.336;2022-11-15T07:22:19;12.60;;;11.70;;
12288;SDS011;6207;49.308;7.336;2022-11-15T07:24:46;10.87;;;10.03;;
12288;SDS011;6207;49.308;7.336;2022-11-15T07:27:13;10.73;;;9.83;;
12288;SDS011;6207;49.308;7.336;2022-11-15T07:29:40;10.90;;;9.90;;
12288;SDS011;6207;49.308;7.336;2022-11-15T07:32:07;10.30;;;9.43;;
12288;SDS011;6207;49.308;7.336;2022-11-15T07:34:35;10.10;;;9.30;;
12288;SDS011;6207;49.308;7.336;2022-11-15T07:37:02;10.77;;;9.77;;
12288;SDS011;6207;49.308;7.336;2022-11-15T07:39:29;10.43;;;9.60;;
12288;SDS011;6207;49.308;7.336;2022-11-15T07:41:55;10.70;;;9.70;;
12288;SDS011;6207;49.308;7.336;2022-11-15T07:44:42;10.57;;;9.73;;
12288;SDS011;6207;49.308;7.336;2022-11-15T07:47:09;10.27;;;9.57;;
12288;SDS011;6207;49.308;7.336;2022-11-15T07:49:35;10.53;;;9.73;;
12288;SDS011;6207;49.308;7.336;2022-11-15T07:52:02;10.30;;;9.40;;
12288;SDS011;6207;49.308;7.336;2022-11-15T07:54:29;10.17;;;9.57;;
12288;SDS011;6207;49.308;7.336;2022-11-15T07:56:56;10.43;;;9.73;;
12288;SDS011;6207;49.308;7.336;2022-11-15T07:59:30;10.77;;;9.70;;
12288;SDS011;6207;49.308;7.336;2022-11-15T08:01:57;10.30;;;9.60;;
12288;SDS011;6207;49.308;7.336;2022-11-15T08:04:24;10.50;;;9.80;;
12288;SDS011;6207;49.308;7.336;2022-11-15T08:06:51;10.83;;;10.10;;
12288;SDS011;6207;49.308;7.336;2022-11-15T08:09:18;10.70;;;10.00;;
12288;SDS011;6207;49.308;7.336;2022-11-15T08:11:44;10.20;;;9.40;;
12288;SDS011;6207;49.308;7.336;2022-11-15T08:14:11;10.50;;;9.80;;
12288;SDS011;6207;49.308;7.336;2022-11-15T08:16:38;9.93;;;9.23;;
12288;SDS011;6207;49.308;7.336;2022-11-15T08:19:05;10.00;;;9.40;;
12288;SDS011;6207;49.308;7.336;2022-11-15T08:21:32;10.40;;;9.50;;
12288;SDS011;6207;49.308;7.336;2022-11-15T08:23:58;10.53;;;9.77;;
12288;SDS011;6207;49.308;7.336;2022-11-15T08:26:25;10.73;;;9.93;;
12288;SDS011;6207;49.308;7.336;2022-11-15T08:28:55;10.23;;;9.53;;
12288;SDS011;6207;49.308;7.336;2022-11-15T08:31:22;10.60;;;9.80;;
12288;SDS011;6207;49.308;7.336;2022-11-15T08:33:48;11.30;;;10.27;;
12288;SDS011;6207;49.308;7.336;2022-11-15T08:36:16;11.37;;;10.40;;
12288;SDS011;6207;49.308;7.336;2022-11-15T08:38:43;11.53;;;10.70;;
12288;SDS011;6207;49.308;7.336;2022-11-15T08:41:11;12.00;;;10.80;;
12288;SDS011;6207;49.308;7.336;2022-11-15T08:43:53;11.67;;;10.63;;
12288;SDS011;6207;49.308;7.336;2022-11-15T08:46:20;11.10;;;10.20;;
12288;SDS011;6207;49.308;7.336;2022-11-15T08:48:47;11.50;;;10.70;;
12288;SDS011;6207;49.308;7.336;2022-11-15T08:51:14;11.20;;;10.30;;
12288;SDS011;6207;49.308;7.336;2022-11-15T08:53:41;11.63;;;10.73;;
12288;SDS011;6207;49.308;7.336;2022-11-15T08:56:09;11.37;;;10.57;;
12288;SDS011;6207;49.308;7.336;2022-11-15T08:58:37;10.80;;;10.00;;
12288;SDS011;6207;49.308;7.336;2022-11-15T09:01:04;12.40;;;11.40;;
12288;SDS011;6207;49.308;7.336;2022-11-15T09:03:31;11.73;;;11.03;;
12288;SDS011;6207;49.308;7.336;2022-11-15T09:05:59;11.50;;;10.60;;
12288;SDS011;6207;49.308;7.336;2022-11-15T09:08:29;11.37;;;10.57;;
12288;SDS011;6207;49.308;7.336;2022-11-15T09:11:13;11.53;;;10.77;;
12288;SDS011;6207;49.308;7.336;2022-11-15T09:13:42;11.33;;;10.63;;
12288;SDS011;6207;49.308;7.336;2022-11-15T09:16:09;10.70;;;9.90;;
12288;SDS011;6207;49.308;7.336;2022-11-15T09:18:38;11.40;;;10.60;;
12288;SDS011;6207;49.308;7.336;2022-11-15T09:21:05;10.63;;;10.03;;
12288;SDS011;6207;49.308;7.336;2022-11-15T09:23:31;10.73;;;10.13;;
12288;SDS011;6207;49.308;7.336;2022-11-15T09:25:59;10.00;;;9.30;;
12288;SDS011;6207;49.308;7.336;2022-11-15T09:28:27;10.30;;;9.43;;
12288;SDS011;6207;49.308;7.336;2022-11-15T09:30:58;10.43;;;9.73;;
12288;SDS011;6207;49.308;7.336;2022-11-15T09:33:27;10.00;;;9.27;;
12288;SDS011;6207;49.308;7.336;2022-11-15T09:36:07;10.30;;;9.57;;
12288;SDS011;6207;49.308;7.336;2022-11-15T09:38:36;10.10;;;9.40;;
12288;SDS011;6207;49.308;7.336;2022-11-15T09:46:33;9.60;;;9.07;;
12288;SDS011;6207;49.308;7.336;2022-11-15T09:49:04;10.07;;;9.37;;
12288;SDS011;6207;49.308;7.336;2022-11-15T09:54:03;10.13;;;9.37;;
12288;SDS011;6207;49.308;7.336;2022-11-15T09:57:03;9.80;;;9.20;;
12288;SDS011;6207;49.308;7.336;2022-11-15T09:59:42;10.77;;;9.87;;
12288;SDS011;6207;49.308;7.336;2022-11-15T10:05:34;10.60;;;9.90;;
12288;SDS011;6207;49.308;7.336;2022-11-15T10:10:49;9.37;;;8.77;;
12288;SDS011;6207;49.308;7.336;2022-11-15T10:13:42;9.68;;;9.18;;
12288;SDS011;6207;49.308;7.336;2022-11-15T10:24:49;10.60;;;9.83;;
12288;SDS011;6207;49.308;7.336;2022-11-15T10:27:18;10.37;;;9.73;;
12288;SDS011;6207;49.308;7.336;2022-11-15T10:29:47;9.47;;;8.97;;
12288;SDS011;6207;49.308;7.336;2022-11-15T10:32:20;9.93;;;9.37;;
12288;SDS011;6207;49.308;7.336;2022-11-15T10:34:49;10.53;;;9.83;;
12288;SDS011;6207;49.308;7.336;2022-11-15T10:37:29;9.70;;;9.20;;
12288;SDS011;6207;49.308;7.336;2022-11-15T10:40:04;10.55;;;9.95;;
12288;SDS011;6207;49.308;7.336;2022-11-15T10:43:05;10.53;;;10.00;;
12288;SDS011;6207;49.308;7.336;2022-11-15T10:45:35;10.73;;;10.03;;
12288;SDS011;6207;49.308;7.336;2022-11-15T10:50:39;10.93;;;10.40;;
12288;SDS011;6207;49.308;7.336;2022-11-15T10:53:12;11.40;;;10.70;;
12288;SDS011;6207;49.308;7.336;2022-11-15T10:55:53;11.70;;;10.93;;
12288;SDS011;6207;49.308;7.336;2022-11-15T10:58:33;11.38;;;10.68;;
12288;SDS011;6207;49.308;7.336;2022-11-15T11:04:01;11.50;;;10.90;;
12288;SDS011;6207;49.308;7.336;2022-11-15T11:06:30;11.93;;;11.13;;
12288;SDS011;6207;49.308;7.336;2022-11-15T11:09:20;11.82;;;11.13;;
12288;SDS011;6207;49.308;7.336;2022-11-15T11:12:06;12.00;;;11.25;;
12288;SDS011;6207;49.308;7.336;2022-11-15T11:14:37;11.93;;;11.30;;
12288;SDS011;6207;49.308;7.336;2022-11-15T11:17:13;11.73;;;11.02;;
12288;SDS011;6207;49.308;7.336;2022-11-15T11:20:10;11.90;;;11.20;;
12288;SDS011;6207;49.308;7.336;2022-11-15T11:25:28;12.10;;;11.23;;
12288;SDS011;6207;49.308;7.336;2022-11-15T11:33:22;11.40;;;10.80;;
12288;SDS011;6207;49.308;7.336;2022-11-15T11:38:51;11.77;;;11.10;;
12288;SDS011;6207;49.308;7.336;2022-11-15T11:41:37;11.80;;;11.20;;
12288;SDS011;6207;49.308;7.336;2022-11-15T11:44:47;11.50;;;10.90;;
12288;SDS011;6207;49.308;7.336;2022-11-15T11:47:40;11.40;;;10.70;;
12288;SDS011;6207;49.308;7.336;2022-11-15T11:52:59;12.07;;;11.18;;
12288;SDS011;6207;49.308;7.336;2022-11-15T11:55:39;11.45;;;10.85;;
12288;SDS011;6207;49.308;7.336;2022-11-15T12:00:58;11.45;;;10.85;;
12288;SDS011;6207;49.308;7.336;2022-11-15T12:03:46;11.15;;;10.65;;
12288;SDS011;6207;49.308;7.336;2022-11-15T12:09:10;11.70;;;11.10;;
12288;SDS011;6207;49.308;7.336;2022-11-15T12:17:36;11.25;;;10.65;;
12288;SDS011;6207;49.308;7.336;2022-11-15T12:20:15;10.90;;;10.35;;
12288;SDS011;6207;49.308;7.336;2022-11-15T12:23:05;11.70;;;11.10;;
12288;SDS011;6207;49.308;7.336;2022-11-15T12:28:01;11.40;;;10.80;;
12288;SDS011;6207;49.308;7.336;2022-11-15T12:31:01;11.60;;;11.00;;
12288;SDS011;6207;49.308;7.336;2022-11-15T12:33:31;11.32;;;10.82;;
12288;SDS011;6207;49.308;7.336;2022-11-15T12:36:03;11.52;;;10.82;;
12288;SDS011;6207;49.308;7.336;2022-11-15T12:41:40;11.70;;;11.10;;
12288;SDS011;6207;49.308;7.336;2022-11-15T12:47:02;11.40;;;10.90;;
12288;SDS011;6207;49.308;7.336;2022-11-15T13:02:50;11.82;;;11.23;;
12288;SDS011;6207;49.308;7.336;2022-11-15T13:05:52;11.63;;;11.00;;
12288;SDS011;6207;49.308;7.336;2022-11-15T13:08:35;11.48;;;10.88;;
12288;SDS011;6207;49.308;7.336;2022-11-15T13:35:46;11.63;;;10.93;;
12288;SDS011;6207;49.308;7.336;2022-11-15T13:38:27;11.00;;;10.50;;
12288;SDS011;6207;49.308;7.336;2022-11-15T13:40:56;11.70;;;11.10;;
12288;SDS011;6207;49.308;7.336;2022-11-15T13:43:29;11.70;;;11.10;;
12288;SDS011;6207;49.308;7.336;2022-11-15T13:46:04;11.50;;;10.90;;
12288;SDS011;6207;49.308;7.336;2022-11-15T13:48:31;11.55;;;10.90;;
12288;SDS011;6207;49.308;7.336;2022-11-15T13:51:04;11.30;;;10.70;;
12288;SDS011;6207;49.308;7.336;2022-11-15T13:53:34;11.70;;;11.10;;
12288;SDS011;6207;49.308;7.336;2022-11-15T13:56:07;11.70;;;11.10;;
12288;SDS011;6207;49.308;7.336;2022-11-15T13:58:36;11.32;;;10.63;;
12288;SDS011;6207;49.308;7.336;2022-11-15T14:01:05;11.53;;;10.93;;
12288;SDS011;6207;49.308;7.336;2022-11-15T14:03:34;11.48;;;10.82;;
12288;SDS011;6207;49.308;7.336;2022-11-15T14:06:11;11.37;;;10.80;;
12288;SDS011;6207;49.308;7.336;2022-11-15T14:11:29;11.27;;;10.70;;
12288;SDS011;6207;49.308;7.336;2022-11-15T14:16:47;11.50;;;11.00;;
12288;SDS011;6207;49.308;7.336;2022-11-15T14:24:41;11.90;;;11.30;;
12288;SDS011;6207;49.308;7.336;2022-11-15T14:29:52;11.27;;;10.77;;
12288;SDS011;6207;49.308;7.336;2022-11-15T14:34:48;11.50;;;10.90;;
12288;SDS011;6207;49.308;7.336;2022-11-15T14:37:53;12.00;;;11.30;;
12288;SDS011;6207;49.308;7.336;2022-11-15T14:40:19;11.40;;;10.80;;
12288;SDS011;6207;49.308;7.336;2022-11-15T14:42:48;11.30;;;10.70;;
12288;SDS011;6207;49.308;7.336;2022-11-15T14:45:17;10.87;;;10.37;;
12288;SDS011;6207;49.308;7.336;2022-11-15T14:48:00;11.57;;;10.97;;
12288;SDS011;6207;49.308;7.336;2022-11-15T14:50:27;11.37;;;10.87;;
12288;SDS011;6207;49.308;7.336;2022-11-15T14:52:54;11.57;;;10.83;;
12288;SDS011;6207;49.308;7.336;2022-11-15T14:55:25;11.47;;;10.90;;
12288;SDS011;6207;49.308;7.336;2022-11-15T14:58:02;11.50;;;11.00;;
12288;SDS011;6207;49.308;7.336;2022-11-15T15:00:30;11.60;;;11.00;;
12288;SDS011;6207;49.308;7.336;2022-11-15T15:03:58;11.50;;;10.90;;
12288;SDS011;6207;49.308;7.336;2022-11-15T15:06:25;10.63;;;10.10;;
12288;SDS011;6207;49.308;7.336;2022-11-15T15:08:52;10.90;;;10.40;;
12288;SDS011;6207;49.308;7.336;2022-11-15T15:13:46;11.73;;;11.13;;
12288;SDS011;6207;49.308;7.336;2022-11-15T15:16:13;11.53;;;11.00;;
12288;SDS011;6207;49.308;7.336;2022-11-15T15:18:40;11.80;;;11.10;;
12288;SDS011;6207;49.308;7.336;2022-11-15T15:21:16;11.40;;;10.80;;
12288;SDS011;6207;49.308;7.336;2022-11-15T15:23:47;11.20;;;10.60;;
12288;SDS011;6207;49.308;7.336;2022-11-15T15:26:14;11.80;;;11.20;;
12288;SDS011;6207;49.308;7.336;2022-11-15T15:28:41;11.33;;;10.70;;
12288;SDS011;6207;49.308;7.336;2022-11-15T15:31:09;11.30;;;10.80;;
12288;SDS011;6207;49.308;7.336;2022-11-15T15:33:36;11.00;;;10.50;;
12288;SDS011;6207;49.308;7.336;2022-11-15T15:36:03;11.33;;;10.60;;
12288;SDS011;6207;49.308;7.336;2022-11-15T15:38:31;11.60;;;10.90;;
12288;SDS011;6207;49.308;7.336;2022-11-15T15:40:58;11.37;;;10.60;;
12288;SDS011;6207;49.308;7.336;2022-11-15T15:43:28;11.07;;;10.47;;
12288;SDS011;6207;49.308;7.336;2022-11-15T15:45:54;11.00;;;10.50;;
12288;SDS011;6207;49.308;7.336;2022-11-15T15:48:24;11.57;;;10.97;;
12288;SDS011;6207;49.308;7.336;2022-11-15T15:50:51;11.53;;;10.93;;
12288;SDS011;6207;49.308;7.336;2022-11-15T15:53:18;11.33;;;10.73;;
12288;SDS011;6207;49.308;7.336;2022-11-15T15:55:45;11.30;;;10.70;;
12288;SDS011;6207;49.308;7.336;2022-11-15T15:58:15;11.80;;;11.00;;
12288;SDS011;6207;49.308;7.336;2022-11-15T16:00:59;11.63;;;10.83;;
12288;SDS011;6207;49.308;7.336;2022-11-15T16:03:26;11.10;;;10.60;;
12288;SDS011;6207;49.308;7.336;2022-11-15T16:05:53;11.37;;;10.87;;
12288;SDS011;6207;49.308;7.336;2022-11-15T16:08:21;10.90;;;10.33;;
12288;SDS011;6207;49.308;7.336;2022-11-15T16:10:50;11.30;;;10.70;;
12288;SDS011;6207;49.308;7.336;2022-11-15T16:13:17;11.70;;;11.10;;
12288;SDS011;6207;49.308;7.336;2022-11-15T16:15:44;11.33;;;10.73;;
12288;SDS011;6207;49.308;7.336;2022-11-15T16:18:17;11.90;;;11.20;;
12288;SDS011;6207;49.308;7.336;2022-11-15T16:20:45;11.07;;;10.53;;
12288;SDS011;6207;49.308;7.336;2022-11-15T16:23:17;11.07;;;10.47;;
12288;SDS011;6207;49.308;7.336;2022-11-15T16:25:48;11.97;;;11.27;;
12288;SDS011;6207;49.308;7.336;2022-11-15T16:28:17;11.40;;;10.80;;
12288;SDS011;6207;49.308;7.336;2022-11-15T16:30:46;11.40;;;10.80;;
12288;SDS011;6207;49.308;7.336;2022-11-15T16:33:21;11.63;;;11.03;;
12288;SDS011;6207;49.308;7.336;2022-11-15T16:35:51;11.40;;;10.80;;
12288;SDS011;6207;49.308;7.336;2022-11-15T16:38:18;10.97;;;10.40;;
12288;SDS011;6207;49.308;7.336;2022-11-15T16:40:45;11.40;;;10.53;;
12288;SDS011;6207;49.308;7.336;2022-11-15T16:43:13;11.63;;;10.90;;
12288;SDS011;6207;49.308;7.336;2022-11-15T16:45:40;11.37;;;10.47;;
12288;SDS011;6207;49.308;7.336;2022-11-15T16:48:09;10.90;;;10.30;;
12288;SDS011;6207;49.308;7.336;2022-11-15T16:50:48;11.20;;;10.60;;
12288;SDS011;6207;49.308;7.336;2022-11-15T16:53:16;10.83;;;10.30;;
12288;SDS011;6207;49.308;7.336;2022-11-15T16:55:43;10.87;;;10.37;;
12288;SDS011;6207;49.308;7.336;2022-11-15T16:58:10;11.33;;;10.73;;
12288;SDS011;6207;49.308;7.336;2022-11-15T17:00:40;11.10;;;10.50;;
12288;SDS011;6207;49.308;7.336;2022-11-15T17:03:07;11.50;;;10.90;;
12288;SDS011;6207;49.308;7.336;2022-11-15T17:05:34;11.57;;;10.87;;
12288;SDS011;6207;49.308;7.336;2022-11-15T17:08:01;11.33;;;10.67;;
12288;SDS011;6207;49.308;7.336;2022-11-15T17:10:28;11.30;;;10.70;;
12288;SDS011;6207;49.308;7.336;2022-11-15T17:12:55;11.10;;;10.60;;
12288;SDS011;6207;49.308;7.336;2022-11-15T17:15:22;11.20;;;10.60;;
12288;SDS011;6207;49.308;7.336;2022-11-15T17:17:53;11.20;;;10.50;;
12288;SDS011;6207;49.308;7.336;2022-11-15T17:20:22;11.33;;;10.53;;
12288;SDS011;6207;49.308;7.336;2022-11-15T17:22:50;11.13;;;10.53;;
12288;SDS011;6207;49.308;7.336;2022-11-15T17:25:18;11.20;;;10.60;;
12288;SDS011;6207;49.308;7.336;2022-11-15T17:27:45;11.33;;;10.57;;
12288;SDS011;6207;49.308;7.336;2022-11-15T17:30:12;11.63;;;11.03;;
12288;SDS011;6207;49.308;7.336;2022-11-15T17:32:45;12.37;;;11.60;;
12288;SDS011;6207;49.308;7.336;2022-11-15T17:35:15;11.23;;;10.53;;
12288;SDS011;6207;49.308;7.336;2022-11-15T17:37:42;11.40;;;10.70;;
12288;SDS011;6207;49.308;7.336;2022-11-15T17:40:09;11.40;;;10.80;;
12288;SDS011;6207;49.308;7.336;2022-11-15T17:42:39;11.57;;;10.87;;
12288;SDS011;6207;49.308;7.336;2022-11-15T17:45:07;11.60;;;10.73;;
12288;SDS011;6207;49.308;7.336;2022-11-15T17:47:36;11.20;;;10.60;;